Portada
METAR-TAF:

METAR-TAF

Aeropuertos :

Aeropuerto de Toulouse-Blagnac

Toulouse, Francia

latitud: 43-38N, longitud: 001-22E, altitud: 152 m

Observación

El informe se hizo hace 37 minutos, a las 08:30 UTC
Viento 2 kt con dirección variable
Temperatura 22°C
Humedad 60%
Presión 1021 hPa
Visibilidad 10 km o más
sin nubes por debajo de 1500 m y sin presencia de cumulonimbus.

METAR: LFBO 230830Z AUTO VRB02KT CAVOK 22/14 Q1021 NOSIG

Hora: 11:07 (09:07 UTC)

Pronóstico

El informe se hizo hace 4 horas y 7 minutos, a las 05:00 UTC
Pronóstico válido del 23 a las 06 UTC al 24 a las 12 UTC
Viento 3 kt con dirección variable
Visibilidad 10 km o más
sin nubes por debajo de 1500 m y sin presencia de cumulonimbus.
Temporalmente
del 23 a las 10 UTC al 23 a las 17 UTC
Viento 7 kt del este

TAF: LFBO 230500Z 2306/2412 VRB03KT CAVOK TEMPO 2310/2317 08007KT

Observaciones y pronósticos meteorológicos de más de 4000 aeropuertos (mensajes METAR y TAF).

Los puntos amarillos y rojos representan las estaciones disponibles.

Ponga el ratón en el punto deseado para ver el nombre de la estación.

Haga clic para ver las observaciones y los pronósticos meteorológicos.

Para cambiar el mapa : haga clic en los botones verdes con una cruz de color negro para hacer un zoom, en el botón verde con un guión para alejar o en las flechas verdes para mapas adyacentes.


METAR-TAF: